sensor_id;sensor_type;location;lat;lon;timestamp;P1;durP1;ratioP1;P2;durP2;ratioP2
70683;SDS011;58263;48.146;11.440;2023-02-15T00:00:53;17.00;;;8.10;;
70683;SDS011;58263;48.146;11.440;2023-02-15T00:03:21;23.05;;;8.63;;
70683;SDS011;58263;48.146;11.440;2023-02-15T00:05:46;19.08;;;9.40;;
70683;SDS011;58263;48.146;11.440;2023-02-15T00:08:12;14.43;;;8.35;;
70683;SDS011;58263;48.146;11.440;2023-02-15T00:10:37;26.52;;;8.93;;
70683;SDS011;58263;48.146;11.440;2023-02-15T00:13:02;18.17;;;9.03;;
70683;SDS011;58263;48.146;11.440;2023-02-15T00:15:28;21.87;;;8.20;;
70683;SDS011;58263;48.146;11.440;2023-02-15T00:17:53;22.13;;;9.10;;
70683;SDS011;58263;48.146;11.440;2023-02-15T00:20:18;14.13;;;8.07;;
70683;SDS011;58263;48.146;11.440;2023-02-15T00:22:43;21.17;;;8.30;;
70683;SDS011;58263;48.146;11.440;2023-02-15T00:25:09;17.45;;;8.95;;
70683;SDS011;58263;48.146;11.440;2023-02-15T00:27:34;17.77;;;9.07;;
70683;SDS011;58263;48.146;11.440;2023-02-15T00:30:00;31.33;;;8.87;;
70683;SDS011;58263;48.146;11.440;2023-02-15T00:32:25;18.33;;;8.27;;
70683;SDS011;58263;48.146;11.440;2023-02-15T00:34:50;16.47;;;8.37;;
70683;SDS011;58263;48.146;11.440;2023-02-15T00:37:15;52.27;;;8.63;;
70683;SDS011;58263;48.146;11.440;2023-02-15T00:39:41;18.33;;;8.90;;
70683;SDS011;58263;48.146;11.440;2023-02-15T00:42:06;31.20;;;8.50;;
70683;SDS011;58263;48.146;11.440;2023-02-15T00:44:32;17.57;;;9.00;;
70683;SDS011;58263;48.146;11.440;2023-02-15T00:46:57;32.23;;;9.67;;
70683;SDS011;58263;48.146;11.440;2023-02-15T00:49:22;16.08;;;8.15;;
70683;SDS011;58263;48.146;11.440;2023-02-15T00:51:48;18.30;;;8.07;;
70683;SDS011;58263;48.146;11.440;2023-02-15T00:54:13;45.37;;;9.57;;
70683;SDS011;58263;48.146;11.440;2023-02-15T00:56:38;51.67;;;10.57;;
70683;SDS011;58263;48.146;11.440;2023-02-15T00:59:04;20.27;;;8.53;;
70683;SDS011;58263;48.146;11.440;2023-02-15T01:01:29;16.70;;;8.30;;
70683;SDS011;58263;48.146;11.440;2023-02-15T01:03:54;14.13;;;8.40;;
70683;SDS011;58263;48.146;11.440;2023-02-15T01:06:20;17.03;;;9.23;;
70683;SDS011;58263;48.146;11.440;2023-02-15T01:08:45;14.35;;;7.90;;
70683;SDS011;58263;48.146;11.440;2023-02-15T01:11:12;20.45;;;10.05;;
70683;SDS011;58263;48.146;11.440;2023-02-15T01:16:05;21.17;;;8.15;;
70683;SDS011;58263;48.146;11.440;2023-02-15T01:18:31;16.83;;;8.32;;
70683;SDS011;58263;48.146;11.440;2023-02-15T01:20:57;26.77;;;7.80;;
70683;SDS011;58263;48.146;11.440;2023-02-15T01:23:23;21.17;;;8.10;;
70683;SDS011;58263;48.146;11.440;2023-02-15T01:25:49;18.73;;;8.45;;
70683;SDS011;58263;48.146;11.440;2023-02-15T01:28:14;16.17;;;7.50;;
70683;SDS011;58263;48.146;11.440;2023-02-15T01:30:39;16.23;;;7.67;;
70683;SDS011;58263;48.146;11.440;2023-02-15T01:33:05;13.95;;;7.55;;
70683;SDS011;58263;48.146;11.440;2023-02-15T01:35:30;15.77;;;7.20;;
70683;SDS011;58263;48.146;11.440;2023-02-15T01:37:56;34.75;;;8.55;;
70683;SDS011;58263;48.146;11.440;2023-02-15T01:40:22;16.77;;;7.45;;
70683;SDS011;58263;48.146;11.440;2023-02-15T01:42:51;18.17;;;7.50;;
70683;SDS011;58263;48.146;11.440;2023-02-15T01:45:23;28.50;;;8.15;;
70683;SDS011;58263;48.146;11.440;2023-02-15T01:50:29;12.10;;;6.70;;
70683;SDS011;58263;48.146;11.440;2023-02-15T01:53:08;11.63;;;6.88;;
70683;SDS011;58263;48.146;11.440;2023-02-15T01:55:42;17.02;;;7.68;;
70683;SDS011;58263;48.146;11.440;2023-02-15T01:58:12;17.25;;;7.40;;
70683;SDS011;58263;48.146;11.440;2023-02-15T02:00:39;20.10;;;6.95;;
70683;SDS011;58263;48.146;11.440;2023-02-15T02:03:04;13.02;;;7.85;;
70683;SDS011;58263;48.146;11.440;2023-02-15T02:05:30;12.05;;;7.05;;
70683;SDS011;58263;48.146;11.440;2023-02-15T02:07:57;11.93;;;6.93;;
70683;SDS011;58263;48.146;11.440;2023-02-15T02:10:26;15.27;;;7.30;;
70683;SDS011;58263;48.146;11.440;2023-02-15T02:12:52;15.40;;;6.72;;
70683;SDS011;58263;48.146;11.440;2023-02-15T02:15:23;14.63;;;7.95;;
70683;SDS011;58263;48.146;11.440;2023-02-15T02:18:03;16.33;;;6.90;;
70683;SDS011;58263;48.146;11.440;2023-02-15T02:20:59;14.30;;;7.43;;
70683;SDS011;58263;48.146;11.440;2023-02-15T02:29:19;11.45;;;7.05;;
70683;SDS011;58263;48.146;11.440;2023-02-15T02:34:40;18.67;;;6.88;;
70683;SDS011;58263;48.146;11.440;2023-02-15T02:37:28;16.13;;;6.95;;
70683;SDS011;58263;48.146;11.440;2023-02-15T02:40:12;13.95;;;7.22;;
70683;SDS011;58263;48.146;11.440;2023-02-15T02:43:01;26.67;;;8.57;;
70683;SDS011;58263;48.146;11.440;2023-02-15T02:45:33;14.25;;;7.50;;
70683;SDS011;58263;48.146;11.440;2023-02-15T02:48:08;14.02;;;7.03;;
70683;SDS011;58263;48.146;11.440;2023-02-15T02:50:40;46.75;;;8.43;;
70683;SDS011;58263;48.146;11.440;2023-02-15T02:53:06;25.40;;;7.07;;
70683;SDS011;58263;48.146;11.440;2023-02-15T02:55:42;14.50;;;7.13;;
70683;SDS011;58263;48.146;11.440;2023-02-15T02:58:13;19.98;;;7.80;;
70683;SDS011;58263;48.146;11.440;2023-02-15T03:00:45;23.60;;;7.85;;
70683;SDS011;58263;48.146;11.440;2023-02-15T03:06:05;15.57;;;6.55;;
70683;SDS011;58263;48.146;11.440;2023-02-15T03:08:38;12.73;;;6.70;;
70683;SDS011;58263;48.146;11.440;2023-02-15T03:11:09;12.60;;;7.72;;
70683;SDS011;58263;48.146;11.440;2023-02-15T03:13:36;11.10;;;6.75;;
70683;SDS011;58263;48.146;11.440;2023-02-15T03:16:02;11.90;;;6.75;;
70683;SDS011;58263;48.146;11.440;2023-02-15T03:18:51;12.73;;;7.70;;
70683;SDS011;58263;48.146;11.440;2023-02-15T03:21:24;11.07;;;6.40;;
70683;SDS011;58263;48.146;11.440;2023-02-15T03:24:00;11.50;;;6.15;;
70683;SDS011;58263;48.146;11.440;2023-02-15T03:26:32;11.95;;;5.93;;
70683;SDS011;58263;48.146;11.440;2023-02-15T03:28:59;15.32;;;6.55;;
70683;SDS011;58263;48.146;11.440;2023-02-15T03:31:28;20.02;;;7.40;;
70683;SDS011;58263;48.146;11.440;2023-02-15T03:33:59;18.60;;;6.22;;
70683;SDS011;58263;48.146;11.440;2023-02-15T03:39:04;13.93;;;7.03;;
70683;SDS011;58263;48.146;11.440;2023-02-15T03:41:54;12.50;;;7.03;;
70683;SDS011;58263;48.146;11.440;2023-02-15T03:44:57;14.57;;;7.00;;
70683;SDS011;58263;48.146;11.440;2023-02-15T03:47:37;13.10;;;6.82;;
70683;SDS011;58263;48.146;11.440;2023-02-15T03:50:26;12.13;;;6.68;;
70683;SDS011;58263;48.146;11.440;2023-02-15T03:53:14;15.05;;;6.55;;
70683;SDS011;58263;48.146;11.440;2023-02-15T03:55:45;20.60;;;6.72;;
70683;SDS011;58263;48.146;11.440;2023-02-15T03:58:12;16.08;;;7.10;;
70683;SDS011;58263;48.146;11.440;2023-02-15T04:00:59;14.93;;;7.05;;
70683;SDS011;58263;48.146;11.440;2023-02-15T04:03:50;17.27;;;6.82;;
70683;SDS011;58263;48.146;11.440;2023-02-15T04:06:24;16.85;;;6.90;;
70683;SDS011;58263;48.146;11.440;2023-02-15T04:08:49;10.97;;;6.67;;
70683;SDS011;58263;48.146;11.440;2023-02-15T04:11:33;11.20;;;6.85;;
70683;SDS011;58263;48.146;11.440;2023-02-15T04:13:58;10.77;;;6.33;;
70683;SDS011;58263;48.146;11.440;2023-02-15T04:16:44;19.60;;;6.35;;
70683;SDS011;58263;48.146;11.440;2023-02-15T04:19:09;14.47;;;6.70;;
70683;SDS011;58263;48.146;11.440;2023-02-15T04:21:53;13.02;;;7.20;;
70683;SDS011;58263;48.146;11.440;2023-02-15T04:24:36;12.45;;;6.70;;
70683;SDS011;58263;48.146;11.440;2023-02-15T04:27:20;11.88;;;6.45;;
70683;SDS011;58263;48.146;11.440;2023-02-15T04:29:46;13.35;;;6.85;;
70683;SDS011;58263;48.146;11.440;2023-02-15T04:32:11;10.57;;;5.70;;
70683;SDS011;58263;48.146;11.440;2023-02-15T04:34:36;12.13;;;6.03;;
70683;SDS011;58263;48.146;11.440;2023-02-15T04:37:01;13.03;;;6.43;;
70683;SDS011;58263;48.146;11.440;2023-02-15T04:39:27;10.77;;;6.33;;
70683;SDS011;58263;48.146;11.440;2023-02-15T04:41:52;19.03;;;7.00;;
70683;SDS011;58263;48.146;11.440;2023-02-15T04:44:17;21.55;;;5.95;;
70683;SDS011;58263;48.146;11.440;2023-02-15T04:46:43;18.20;;;6.27;;
70683;SDS011;58263;48.146;11.440;2023-02-15T04:49:08;14.93;;;8.93;;
70683;SDS011;58263;48.146;11.440;2023-02-15T04:51:34;22.92;;;7.60;;
70683;SDS011;58263;48.146;11.440;2023-02-15T04:53:59;20.07;;;6.93;;
70683;SDS011;58263;48.146;11.440;2023-02-15T04:56:24;12.87;;;6.73;;
70683;SDS011;58263;48.146;11.440;2023-02-15T04:58:50;11.93;;;6.50;;
70683;SDS011;58263;48.146;11.440;2023-02-15T05:01:15;14.48;;;6.93;;
70683;SDS011;58263;48.146;11.440;2023-02-15T05:03:41;17.00;;;7.18;;
70683;SDS011;58263;48.146;11.440;2023-02-15T05:06:06;69.27;;;8.17;;
70683;SDS011;58263;48.146;11.440;2023-02-15T05:08:31;14.30;;;6.00;;
70683;SDS011;58263;48.146;11.440;2023-02-15T05:10:57;24.80;;;6.68;;
70683;SDS011;58263;48.146;11.440;2023-02-15T05:13:22;23.48;;;7.50;;
70683;SDS011;58263;48.146;11.440;2023-02-15T05:15:48;11.45;;;6.80;;
70683;SDS011;58263;48.146;11.440;2023-02-15T05:18:15;23.10;;;7.45;;
70683;SDS011;58263;48.146;11.440;2023-02-15T05:20:41;16.13;;;7.00;;
70683;SDS011;58263;48.146;11.440;2023-02-15T05:23:06;44.77;;;15.93;;
70683;SDS011;58263;48.146;11.440;2023-02-15T05:25:31;16.47;;;8.00;;
70683;SDS011;58263;48.146;11.440;2023-02-15T05:28:26;16.25;;;7.03;;
70683;SDS011;58263;48.146;11.440;2023-02-15T05:31:03;10.60;;;6.60;;
70683;SDS011;58263;48.146;11.440;2023-02-15T05:33:29;13.30;;;6.18;;
70683;SDS011;58263;48.146;11.440;2023-02-15T05:35:54;12.53;;;7.27;;
70683;SDS011;58263;48.146;11.440;2023-02-15T05:38:19;17.10;;;6.67;;
70683;SDS011;58263;48.146;11.440;2023-02-15T05:40:45;45.07;;;7.17;;
70683;SDS011;58263;48.146;11.440;2023-02-15T05:43:10;14.05;;;6.18;;
70683;SDS011;58263;48.146;11.440;2023-02-15T05:45:35;12.97;;;6.40;;
70683;SDS011;58263;48.146;11.440;2023-02-15T05:48:01;17.93;;;5.73;;
70683;SDS011;58263;48.146;11.440;2023-02-15T05:50:26;12.83;;;6.77;;
70683;SDS011;58263;48.146;11.440;2023-02-15T05:52:52;12.00;;;6.95;;
70683;SDS011;58263;48.146;11.440;2023-02-15T05:55:17;13.32;;;7.13;;
70683;SDS011;58263;48.146;11.440;2023-02-15T05:57:43;24.20;;;7.32;;
70683;SDS011;58263;48.146;11.440;2023-02-15T06:00:08;16.53;;;6.40;;
70683;SDS011;58263;48.146;11.440;2023-02-15T06:02:37;11.57;;;6.65;;
70683;SDS011;58263;48.146;11.440;2023-02-15T06:05:03;14.15;;;6.57;;
70683;SDS011;58263;48.146;11.440;2023-02-15T06:07:29;12.55;;;6.22;;
70683;SDS011;58263;48.146;11.440;2023-02-15T06:09:55;12.43;;;6.28;;
70683;SDS011;58263;48.146;11.440;2023-02-15T06:12:20;11.40;;;6.93;;
70683;SDS011;58263;48.146;11.440;2023-02-15T06:14:45;15.60;;;5.88;;
70683;SDS011;58263;48.146;11.440;2023-02-15T06:17:11;14.20;;;6.13;;
70683;SDS011;58263;48.146;11.440;2023-02-15T06:19:36;13.87;;;6.50;;
70683;SDS011;58263;48.146;11.440;2023-02-15T06:22:01;12.00;;;6.30;;
70683;SDS011;58263;48.146;11.440;2023-02-15T06:24:27;13.35;;;5.85;;
70683;SDS011;58263;48.146;11.440;2023-02-15T06:26:52;30.33;;;6.27;;
70683;SDS011;58263;48.146;11.440;2023-02-15T06:29:17;19.13;;;5.57;;
70683;SDS011;58263;48.146;11.440;2023-02-15T06:31:42;7.73;;;5.40;;
70683;SDS011;58263;48.146;11.440;2023-02-15T06:34:08;28.90;;;7.30;;
70683;SDS011;58263;48.146;11.440;2023-02-15T06:36:33;16.17;;;6.63;;
70683;SDS011;58263;48.146;11.440;2023-02-15T06:38:58;11.77;;;6.78;;
70683;SDS011;58263;48.146;11.440;2023-02-15T06:41:24;13.17;;;6.40;;
70683;SDS011;58263;48.146;11.440;2023-02-15T06:43:49;12.15;;;5.93;;
70683;SDS011;58263;48.146;11.440;2023-02-15T06:46:15;12.57;;;6.38;;
70683;SDS011;58263;48.146;11.440;2023-02-15T06:48:41;12.85;;;5.90;;
70683;SDS011;58263;48.146;11.440;2023-02-15T06:51:06;16.00;;;6.40;;
70683;SDS011;58263;48.146;11.440;2023-02-15T06:53:32;10.40;;;6.85;;
70683;SDS011;58263;48.146;11.440;2023-02-15T06:56:04;10.63;;;7.20;;
70683;SDS011;58263;48.146;11.440;2023-02-15T06:58:35;9.65;;;5.93;;
70683;SDS011;58263;48.146;11.440;2023-02-15T07:01:00;10.05;;;6.25;;
70683;SDS011;58263;48.146;11.440;2023-02-15T07:03:26;13.60;;;7.13;;
70683;SDS011;58263;48.146;11.440;2023-02-15T07:05:55;16.93;;;6.90;;
70683;SDS011;58263;48.146;11.440;2023-02-15T07:08:21;18.05;;;6.30;;
70683;SDS011;58263;48.146;11.440;2023-02-15T07:10:46;12.85;;;6.30;;
70683;SDS011;58263;48.146;11.440;2023-02-15T07:13:13;10.63;;;6.32;;
70683;SDS011;58263;48.146;11.440;2023-02-15T07:15:39;13.07;;;7.20;;
70683;SDS011;58263;48.146;11.440;2023-02-15T07:18:04;11.20;;;6.20;;
70683;SDS011;58263;48.146;11.440;2023-02-15T07:20:30;15.60;;;6.80;;
70683;SDS011;58263;48.146;11.440;2023-02-15T07:22:55;12.97;;;6.90;;
70683;SDS011;58263;48.146;11.440;2023-02-15T07:25:20;11.77;;;6.67;;
70683;SDS011;58263;48.146;11.440;2023-02-15T07:27:46;19.57;;;10.87;;
70683;SDS011;58263;48.146;11.440;2023-02-15T07:30:12;21.88;;;6.88;;
70683;SDS011;58263;48.146;11.440;2023-02-15T07:32:39;14.95;;;7.30;;
70683;SDS011;58263;48.146;11.440;2023-02-15T07:35:24;24.65;;;7.25;;
70683;SDS011;58263;48.146;11.440;2023-02-15T07:37:50;23.98;;;9.13;;
70683;SDS011;58263;48.146;11.440;2023-02-15T07:40:15;14.57;;;8.23;;
70683;SDS011;58263;48.146;11.440;2023-02-15T07:42:41;18.40;;;9.40;;
70683;SDS011;58263;48.146;11.440;2023-02-15T07:45:06;16.23;;;8.73;;
70683;SDS011;58263;48.146;11.440;2023-02-15T07:47:32;17.02;;;8.10;;
70683;SDS011;58263;48.146;11.440;2023-02-15T07:49:57;19.00;;;8.13;;
70683;SDS011;58263;48.146;11.440;2023-02-15T07:52:22;20.30;;;8.50;;
70683;SDS011;58263;48.146;11.440;2023-02-15T07:54:47;16.83;;;9.33;;
70683;SDS011;58263;48.146;11.440;2023-02-15T07:57:13;13.30;;;7.17;;
70683;SDS011;58263;48.146;11.440;2023-02-15T07:59:38;14.93;;;7.87;;
70683;SDS011;58263;48.146;11.440;2023-02-15T08:02:05;20.90;;;7.83;;
70683;SDS011;58263;48.146;11.440;2023-02-15T08:04:34;16.00;;;8.35;;
70683;SDS011;58263;48.146;11.440;2023-02-15T08:06:59;27.47;;;8.70;;
70683;SDS011;58263;48.146;11.440;2023-02-15T08:09:25;22.60;;;9.23;;
70683;SDS011;58263;48.146;11.440;2023-02-15T08:11:50;17.90;;;9.03;;
70683;SDS011;58263;48.146;11.440;2023-02-15T08:14:16;19.50;;;9.50;;
70683;SDS011;58263;48.146;11.440;2023-02-15T08:17:01;22.60;;;9.82;;
70683;SDS011;58263;48.146;11.440;2023-02-15T08:19:30;24.90;;;11.13;;
70683;SDS011;58263;48.146;11.440;2023-02-15T08:21:58;19.15;;;11.20;;
70683;SDS011;58263;48.146;11.440;2023-02-15T08:24:25;24.90;;;11.10;;
70683;SDS011;58263;48.146;11.440;2023-02-15T08:26:52;28.50;;;12.38;;
70683;SDS011;58263;48.146;11.440;2023-02-15T08:29:19;25.48;;;12.05;;
70683;SDS011;58263;48.146;11.440;2023-02-15T08:31:47;23.10;;;12.00;;
70683;SDS011;58263;48.146;11.440;2023-02-15T08:34:14;25.10;;;11.27;;
70683;SDS011;58263;48.146;11.440;2023-02-15T08:36:41;25.35;;;11.65;;
70683;SDS011;58263;48.146;11.440;2023-02-15T08:39:07;20.45;;;10.77;;
70683;SDS011;58263;48.146;11.440;2023-02-15T08:41:34;21.60;;;11.88;;
70683;SDS011;58263;48.146;11.440;2023-02-15T08:44:01;20.20;;;10.82;;
70683;SDS011;58263;48.146;11.440;2023-02-15T08:46:29;19.50;;;10.45;;
70683;SDS011;58263;48.146;11.440;2023-02-15T08:48:57;19.73;;;9.75;;
70683;SDS011;58263;48.146;11.440;2023-02-15T08:51:24;16.80;;;10.02;;
70683;SDS011;58263;48.146;11.440;2023-02-15T08:53:52;17.77;;;9.50;;
70683;SDS011;58263;48.146;11.440;2023-02-15T08:56:20;19.85;;;10.35;;
70683;SDS011;58263;48.146;11.440;2023-02-15T08:58:47;21.73;;;10.57;;
70683;SDS011;58263;48.146;11.440;2023-02-15T09:01:14;17.23;;;10.60;;
70683;SDS011;58263;48.146;11.440;2023-02-15T09:03:44;18.48;;;9.68;;
70683;SDS011;58263;48.146;11.440;2023-02-15T09:06:10;20.98;;;9.85;;
70683;SDS011;58263;48.146;11.440;2023-02-15T09:08:36;15.60;;;9.43;;
70683;SDS011;58263;48.146;11.440;2023-02-15T09:11:06;17.92;;;10.70;;
70683;SDS011;58263;48.146;11.440;2023-02-15T09:13:33;17.88;;;10.13;;
70683;SDS011;58263;48.146;11.440;2023-02-15T09:16:02;17.90;;;9.75;;
70683;SDS011;58263;48.146;11.440;2023-02-15T09:18:30;16.85;;;9.65;;
70683;SDS011;58263;48.146;11.440;2023-02-15T09:21:03;18.42;;;9.77;;
70683;SDS011;58263;48.146;11.440;2023-02-15T09:23:38;16.92;;;9.05;;
70683;SDS011;58263;48.146;11.440;2023-02-15T09:26:04;21.23;;;9.93;;
70683;SDS011;58263;48.146;11.440;2023-02-15T09:28:34;18.00;;;9.13;;
70683;SDS011;58263;48.146;11.440;2023-02-15T09:33:38;16.10;;;8.95;;
70683;SDS011;58263;48.146;11.440;2023-02-15T09:36:05;15.20;;;9.18;;
70683;SDS011;58263;48.146;11.440;2023-02-15T09:38:39;16.95;;;9.85;;
70683;SDS011;58263;48.146;11.440;2023-02-15T09:41:17;18.00;;;9.63;;
70683;SDS011;58263;48.146;11.440;2023-02-15T09:44:04;16.58;;;9.65;;
70683;SDS011;58263;48.146;11.440;2023-02-15T09:49:20;16.00;;;9.55;;
70683;SDS011;58263;48.146;11.440;2023-02-15T09:54:58;16.08;;;9.52;;
70683;SDS011;58263;48.146;11.440;2023-02-15T09:57:46;16.17;;;9.85;;
70683;SDS011;58263;48.146;11.440;2023-02-15T10:00:20;18.52;;;9.90;;
70683;SDS011;58263;48.146;11.440;2023-02-15T10:03:18;16.13;;;9.45;;
70683;SDS011;58263;48.146;11.440;2023-02-15T10:06:23;18.52;;;10.57;;
70683;SDS011;58263;48.146;11.440;2023-02-15T10:09:10;18.05;;;9.02;;
70683;SDS011;58263;48.146;11.440;2023-02-15T10:17:40;15.50;;;9.38;;
70683;SDS011;58263;48.146;11.440;2023-02-15T10:28:45;21.83;;;10.38;;
70683;SDS011;58263;48.146;11.440;2023-02-15T10:31:27;22.05;;;10.20;;
70683;SDS011;58263;48.146;11.440;2023-02-15T10:42:11;18.58;;;10.60;;
70683;SDS011;58263;48.146;11.440;2023-02-15T10:45:04;15.68;;;10.15;;
70683;SDS011;58263;48.146;11.440;2023-02-15T10:47:52;16.77;;;9.93;;
70683;SDS011;58263;48.146;11.440;2023-02-15T11:01:44;21.45;;;10.27;;
70683;SDS011;58263;48.146;11.440;2023-02-15T11:04:34;15.80;;;10.30;;
70683;SDS011;58263;48.146;11.440;2023-02-15T11:07:23;15.80;;;10.57;;
70683;SDS011;58263;48.146;11.440;2023-02-15T11:10:22;17.92;;;10.35;;
70683;SDS011;58263;48.146;11.440;2023-02-15T11:12:38;14.43;;;10.55;;
70683;SDS011;58263;48.146;11.440;2023-02-15T11:15:25;14.73;;;10.27;;
70683;SDS011;58263;48.146;11.440;2023-02-15T11:18:00;13.30;;;10.32;;
70683;SDS011;58263;48.146;11.440;2023-02-15T11:20:38;13.88;;;10.55;;
70683;SDS011;58263;48.146;11.440;2023-02-15T11:23:14;13.75;;;10.38;;
70683;SDS011;58263;48.146;11.440;2023-02-15T11:25:43;13.63;;;10.50;;
70683;SDS011;58263;48.146;11.440;2023-02-15T11:28:25;16.48;;;11.02;;
70683;SDS011;58263;48.146;11.440;2023-02-15T11:30:56;12.98;;;10.50;;
70683;SDS011;58263;48.146;11.440;2023-02-15T11:33:25;15.02;;;10.68;;
70683;SDS011;58263;48.146;11.440;2023-02-15T11:35:59;14.63;;;10.77;;
70683;SDS011;58263;48.146;11.440;2023-02-15T11:38:29;14.20;;;10.55;;
70683;SDS011;58263;48.146;11.440;2023-02-15T11:40:59;12.25;;;10.00;;
70683;SDS011;58263;48.146;11.440;2023-02-15T11:46:19;18.52;;;11.52;;
70683;SDS011;58263;48.146;11.440;2023-02-15T11:48:46;15.40;;;11.73;;
70683;SDS011;58263;48.146;11.440;2023-02-15T11:51:13;13.35;;;10.48;;
70683;SDS011;58263;48.146;11.440;2023-02-15T11:53:41;17.35;;;11.82;;
70683;SDS011;58263;48.146;11.440;2023-02-15T11:56:15;15.93;;;11.30;;
70683;SDS011;58263;48.146;11.440;2023-02-15T12:01:24;17.05;;;11.43;;
70683;SDS011;58263;48.146;11.440;2023-02-15T12:06:46;17.85;;;11.80;;
70683;SDS011;58263;48.146;11.440;2023-02-15T12:09:29;13.82;;;10.98;;
70683;SDS011;58263;48.146;11.440;2023-02-15T12:14:51;16.60;;;11.48;;
70683;SDS011;58263;48.146;11.440;2023-02-15T12:17:18;16.30;;;11.63;;
70683;SDS011;58263;48.146;11.440;2023-02-15T12:19:46;19.30;;;12.32;;
70683;SDS011;58263;48.146;11.440;2023-02-15T12:22:34;15.60;;;10.90;;
70683;SDS011;58263;48.146;11.440;2023-02-15T12:25:03;16.10;;;12.05;;
70683;SDS011;58263;48.146;11.440;2023-02-15T12:27:44;14.93;;;12.02;;
70683;SDS011;58263;48.146;11.440;2023-02-15T12:30:18;15.13;;;11.18;;
70683;SDS011;58263;48.146;11.440;2023-02-15T12:32:52;16.20;;;11.13;;
70683;SDS011;58263;48.146;11.440;2023-02-15T12:35:28;16.02;;;11.88;;
70683;SDS011;58263;48.146;11.440;2023-02-15T12:38:03;18.58;;;11.85;;
70683;SDS011;58263;48.146;11.440;2023-02-15T12:40:34;16.73;;;11.63;;
70683;SDS011;58263;48.146;11.440;2023-02-15T12:43:00;16.77;;;11.75;;
70683;SDS011;58263;48.146;11.440;2023-02-15T12:45:33;20.92;;;13.18;;
70683;SDS011;58263;48.146;11.440;2023-02-15T12:50:46;17.10;;;11.88;;
70683;SDS011;58263;48.146;11.440;2023-02-15T12:53:22;18.92;;;12.63;;
70683;SDS011;58263;48.146;11.440;2023-02-15T12:56:00;15.57;;;10.80;;
70683;SDS011;58263;48.146;11.440;2023-02-15T12:58:29;15.90;;;11.38;;
70683;SDS011;58263;48.146;11.440;2023-02-15T13:03:37;18.30;;;11.63;;
70683;SDS011;58263;48.146;11.440;2023-02-15T13:06:14;16.65;;;11.60;;
70683;SDS011;58263;48.146;11.440;2023-02-15T13:08:45;19.70;;;12.25;;
70683;SDS011;58263;48.146;11.440;2023-02-15T13:11:15;17.05;;;11.98;;
70683;SDS011;58263;48.146;11.440;2023-02-15T13:13:53;16.95;;;11.93;;
70683;SDS011;58263;48.146;11.440;2023-02-15T13:16:27;18.02;;;12.25;;
70683;SDS011;58263;48.146;11.440;2023-02-15T13:19:02;20.08;;;12.77;;
70683;SDS011;58263;48.146;11.440;2023-02-15T13:21:32;19.55;;;12.23;;
70683;SDS011;58263;48.146;11.440;2023-02-15T13:24:04;16.48;;;12.45;;
70683;SDS011;58263;48.146;11.440;2023-02-15T13:26:32;19.50;;;12.38;;
70683;SDS011;58263;48.146;11.440;2023-02-15T13:29:11;20.17;;;12.63;;
70683;SDS011;58263;48.146;11.440;2023-02-15T13:31:44;17.95;;;12.57;;
70683;SDS011;58263;48.146;11.440;2023-02-15T13:34:11;16.77;;;11.65;;
70683;SDS011;58263;48.146;11.440;2023-02-15T13:42:30;20.42;;;13.13;;
70683;SDS011;58263;48.146;11.440;2023-02-15T13:51:05;19.17;;;12.43;;
70683;SDS011;58263;48.146;11.440;2023-02-15T13:56:39;20.45;;;12.13;;
70683;SDS011;58263;48.146;11.440;2023-02-15T14:01:57;19.92;;;12.35;;
70683;SDS011;58263;48.146;11.440;2023-02-15T14:07:49;20.67;;;12.25;;
70683;SDS011;58263;48.146;11.440;2023-02-15T14:21:38;22.63;;;11.82;;
70683;SDS011;58263;48.146;11.440;2023-02-15T14:24:27;17.85;;;11.35;;
70683;SDS011;58263;48.146;11.440;2023-02-15T14:27:27;19.50;;;12.07;;
70683;SDS011;58263;48.146;11.440;2023-02-15T14:29:57;18.60;;;11.25;;
70683;SDS011;58263;48.146;11.440;2023-02-15T14:32:33;19.02;;;12.15;;
70683;SDS011;58263;48.146;11.440;2023-02-15T14:35:05;18.27;;;11.50;;
70683;SDS011;58263;48.146;11.440;2023-02-15T14:45:52;18.70;;;11.48;;
70683;SDS011;58263;48.146;11.440;2023-02-15T14:48:41;18.20;;;11.00;;
70683;SDS011;58263;48.146;11.440;2023-02-15T14:51:08;18.77;;;12.07;;
70683;SDS011;58263;48.146;11.440;2023-02-15T14:53:35;19.40;;;11.32;;
70683;SDS011;58263;48.146;11.440;2023-02-15T14:56:13;20.23;;;11.50;;
70683;SDS011;58263;48.146;11.440;2023-02-15T15:01:16;19.30;;;9.98;;
70683;SDS011;58263;48.146;11.440;2023-02-15T15:03:51;19.58;;;11.50;;
70683;SDS011;58263;48.146;11.440;2023-02-15T15:06:26;17.52;;;11.27;;
70683;SDS011;58263;48.146;11.440;2023-02-15T15:08:55;20.27;;;11.57;;
70683;SDS011;58263;48.146;11.440;2023-02-15T15:13:56;16.67;;;10.52;;
70683;SDS011;58263;48.146;11.440;2023-02-15T15:16:31;16.63;;;11.13;;
70683;SDS011;58263;48.146;11.440;2023-02-15T15:19:12;19.73;;;11.63;;
70683;SDS011;58263;48.146;11.440;2023-02-15T15:22:19;17.63;;;10.57;;
70683;SDS011;58263;48.146;11.440;2023-02-15T15:24:50;17.17;;;11.13;;
70683;SDS011;58263;48.146;11.440;2023-02-15T15:35:27;16.50;;;11.00;;
70683;SDS011;58263;48.146;11.440;2023-02-15T15:38:36;15.77;;;9.70;;
70683;SDS011;58263;48.146;11.440;2023-02-15T15:41:39;20.90;;;10.63;;
70683;SDS011;58263;48.146;11.440;2023-02-15T15:49:45;16.95;;;10.90;;
70683;SDS011;58263;48.146;11.440;2023-02-15T15:52:15;20.05;;;10.27;;
70683;SDS011;58263;48.146;11.440;2023-02-15T15:54:44;19.15;;;10.80;;
70683;SDS011;58263;48.146;11.440;2023-02-15T15:57:14;17.05;;;11.60;;
70683;SDS011;58263;48.146;11.440;2023-02-15T15:59:44;19.17;;;10.95;;
70683;SDS011;58263;48.146;11.440;2023-02-15T16:02:11;25.27;;;10.38;;
70683;SDS011;58263;48.146;11.440;2023-02-15T16:04:41;16.80;;;10.13;;
70683;SDS011;58263;48.146;11.440;2023-02-15T16:09:41;14.82;;;9.95;;
70683;SDS011;58263;48.146;11.440;2023-02-15T16:12:13;15.52;;;10.20;;
70683;SDS011;58263;48.146;11.440;2023-02-15T16:14:42;15.60;;;10.50;;
70683;SDS011;58263;48.146;11.440;2023-02-15T16:17:17;17.90;;;10.15;;
70683;SDS011;58263;48.146;11.440;2023-02-15T16:22:16;16.20;;;11.10;;
70683;SDS011;58263;48.146;11.440;2023-02-15T16:27:26;16.33;;;9.98;;
70683;SDS011;58263;48.146;11.440;2023-02-15T16:33:11;20.65;;;11.13;;
70683;SDS011;58263;48.146;11.440;2023-02-15T16:35:38;18.60;;;11.07;;
70683;SDS011;58263;48.146;11.440;2023-02-15T16:38:05;19.77;;;10.85;;
70683;SDS011;58263;48.146;11.440;2023-02-15T16:40:42;17.27;;;10.95;;
70683;SDS011;58263;48.146;11.440;2023-02-15T16:43:14;19.10;;;11.40;;
70683;SDS011;58263;48.146;11.440;2023-02-15T16:45:43;18.50;;;11.82;;
70683;SDS011;58263;48.146;11.440;2023-02-15T16:48:12;21.67;;;13.93;;
70683;SDS011;58263;48.146;11.440;2023-02-15T16:50:46;22.45;;;11.95;;
70683;SDS011;58263;48.146;11.440;2023-02-15T16:53:18;22.75;;;12.13;;
70683;SDS011;58263;48.146;11.440;2023-02-15T16:55:48;21.45;;;11.07;;
70683;SDS011;58263;48.146;11.440;2023-02-15T16:58:17;21.33;;;11.48;;
70683;SDS011;58263;48.146;11.440;2023-02-15T17:00:47;21.92;;;12.32;;
70683;SDS011;58263;48.146;11.440;2023-02-15T17:05:49;18.60;;;11.63;;
70683;SDS011;58263;48.146;11.440;2023-02-15T17:08:27;18.83;;;12.20;;